sensor_id;sensor_type;location;lat;lon;timestamp;temperature;humidity
1878;DHT22;939;51.426;6.972;2022-10-16T11:20:13;18.20;99.90
1878;DHT22;939;51.426;6.972;2022-10-16T11:22:44;18.30;99.90
1878;DHT22;939;51.426;6.972;2022-10-16T11:25:16;18.40;99.90
1878;DHT22;939;51.426;6.972;2022-10-16T11:27:49;18.40;99.90
1878;DHT22;939;51.426;6.972;2022-10-16T11:30:20;18.50;99.90
1878;DHT22;939;51.426;6.972;2022-10-16T11:33:05;18.50;99.90
1878;DHT22;939;51.426;6.972;2022-10-16T11:35:44;18.50;99.90
1878;DHT22;939;51.426;6.972;2022-10-16T11:38:24;18.70;99.90
1878;DHT22;939;51.426;6.972;2022-10-16T11:40:56;18.60;99.90
1878;DHT22;939;51.426;6.972;2022-10-16T11:43:26;18.60;99.90
1878;DHT22;939;51.426;6.972;2022-10-16T11:45:58;18.70;99.90
1878;DHT22;939;51.426;6.972;2022-10-16T11:48:32;18.70;99.90
1878;DHT22;939;51.426;6.972;2022-10-16T11:51:08;18.70;99.90
1878;DHT22;939;51.426;6.972;2022-10-16T11:53:46;18.80;99.90
1878;DHT22;939;51.426;6.972;2022-10-16T11:56:17;18.80;99.90
1878;DHT22;939;51.426;6.972;2022-10-16T11:58:52;18.80;99.90
1878;DHT22;939;51.426;6.972;2022-10-16T12:01:28;18.80;99.90
1878;DHT22;939;51.426;6.972;2022-10-16T12:04:19;19.00;99.90
1878;DHT22;939;51.426;6.972;2022-10-16T12:06:52;19.10;99.90
1878;DHT22;939;51.426;6.972;2022-10-16T12:17:03;19.10;99.90
1878;DHT22;939;51.426;6.972;2022-10-16T12:19:32;19.00;99.90
1878;DHT22;939;51.426;6.972;2022-10-16T12:22:02;19.00;99.90
1878;DHT22;939;51.426;6.972;2022-10-16T12:24:35;19.00;99.90
1878;DHT22;939;51.426;6.972;2022-10-16T12:27:03;18.90;99.90
1878;DHT22;939;51.426;6.972;2022-10-16T12:29:55;18.90;99.90
1878;DHT22;939;51.426;6.972;2022-10-16T12:32:27;19.00;99.90
1878;DHT22;939;51.426;6.972;2022-10-16T12:34:55;19.10;99.90
1878;DHT22;939;51.426;6.972;2022-10-16T12:37:36;19.00;99.90
1878;DHT22;939;51.426;6.972;2022-10-16T12:40:15;19.10;99.90
1878;DHT22;939;51.426;6.972;2022-10-16T12:42:43;19.10;99.90
1878;DHT22;939;51.426;6.972;2022-10-16T12:45:25;19.00;99.90
1878;DHT22;939;51.426;6.972;2022-10-16T12:48:25;19.00;99.90
1878;DHT22;939;51.426;6.972;2022-10-16T12:51:11;19.10;99.90
1878;DHT22;939;51.426;6.972;2022-10-16T12:53:40;19.20;99.90
1878;DHT22;939;51.426;6.972;2022-10-16T12:56:13;19.20;99.90
1878;DHT22;939;51.426;6.972;2022-10-16T12:58:59;19.20;99.90
1878;DHT22;939;51.426;6.972;2022-10-16T13:01:54;19.30;99.90
1878;DHT22;939;51.426;6.972;2022-10-16T13:04:45;19.30;99.90
1878;DHT22;939;51.426;6.972;2022-10-16T13:10:20;19.40;99.90
1878;DHT22;939;51.426;6.972;2022-10-16T13:13:12;19.40;99.90
1878;DHT22;939;51.426;6.972;2022-10-16T13:15:58;19.40;99.90
1878;DHT22;939;51.426;6.972;2022-10-16T13:18:34;19.40;99.90
1878;DHT22;939;51.426;6.972;2022-10-16T13:21:17;19.50;99.90
1878;DHT22;939;51.426;6.972;2022-10-16T13:23:59;19.40;99.90
1878;DHT22;939;51.426;6.972;2022-10-16T13:26:42;19.50;99.90
1878;DHT22;939;51.426;6.972;2022-10-16T13:29:19;19.50;99.90
1878;DHT22;939;51.426;6.972;2022-10-16T13:31:51;19.40;99.90
1878;DHT22;939;51.426;6.972;2022-10-16T13:34:45;19.40;99.90
